Billings, MT (59101)

7:31 PM MDT on May 28, 2015 (GMT -0600)
Downtown Billings | | Change Station
CLOSE
Current Station
Personal Weather Station
Location: Billings, MT
Elevation: 3127 ft
Nearby Weather Stations

Elev 3127 ft 45.78 °N, 108.50 °W | Updated 4 minutes ago

Rain
Rain
57.3 °F
Feels Like 57.3 °F
N
6.3
Wind Variable Wind from WNW
Gusts 10.7 mph

Today
High -- | Low -- °F
--% Chance of Precip.
Yesterday
High -- | Low -- °F
Precip. -- in
5:30 AM 8:52 PM
Waxing Gibbous, 80% visible
Pressure 30.12 in
Visibility 8.0 miles
Clouds Scattered Clouds 3100 ft
Mostly Cloudy 5000 ft
Overcast 7000 ft
Dew Point 53 °F
Humidity 84%
Rainfall -999.00 in
Snow Depth Not available.
UV 0 out of 12
Pollen 6.60 out of 12
Air Quality Not available.
Flu Activity Sporadic
METAR KBIL 290053Z 32012KT 8SM -TSRA SCT031CB BKN050 OVC070 13/11 A3013 RMK AO2 RAE19B45 SLP198 OCNL LTGICCC VC N-E TS N-E MOV S P0000 T01330106

More Conditions Fewer Conditions

Pressure 30.12 in
Visibility 8.0 miles
Clouds Scattered Clouds 3100 ft
Mostly Cloudy 5000 ft
Overcast 7000 ft
Dew Point 53 °F
Humidity 84%
Rainfall -999.00 in
Snow Depth Not available.
UV 0 out of 12
Pollen 6.60 out of 12
Air Quality Not available.
Flu Activity Sporadic
METAR KBIL 290053Z 32012KT 8SM -TSRA SCT031CB BKN050 OVC070 13/11 A3013 RMK AO2 RAE19B45 SLP198 OCNL LTGICCC VC N-E TS N-E MOV S P0000 T01330106

More Conditions Fewer Conditions

10-Day Weather Forecast

Almanac

Astronomy

May. 28, 2015 Rise Set
Actual Time
Civil Twilight
Nautical Twilight
Astronomical Twilight
Moon
Length of Visible Light
Length of Day
Tomorrow will be .
, % of the Moon is Illuminated

Today's Extremes

State Highs State Lows

Community

WunderPhotos

Upload Photos

1,825,111 photos uploaded!

WunderBlogs® & News

Nearby

Air Quality

  Air Quality AQ Index Pollutant
Not available.

Snow Depth

Station Depth Elevation

Earthquake Activity

City Distance Mag. Time & Date
Minimum magnitude displayed is 2.5.

Coastal Water Temperatures

Place Temperature

Stations

Nearby Weather Stations

Station Location Temp. Windchill Dew Point Humidity Wind Precip. Elev Updated Type